createdAt,value
2022-12-29T00:00:46.382Z,9.60
2022-12-29T00:03:34.610Z,9.70
2022-12-29T00:06:21.306Z,9.70
2022-12-29T00:09:07.795Z,9.60
2022-12-29T00:11:54.557Z,9.70
2022-12-29T00:14:58.440Z,9.70
2022-12-29T00:17:45.051Z,9.70
2022-12-29T00:20:52.734Z,9.80
2022-12-29T00:23:56.612Z,9.70
2022-12-29T00:27:00.614Z,9.80
2022-12-29T00:30:04.421Z,9.80
2022-12-29T00:33:08.445Z,9.80
2022-12-29T00:35:59.427Z,9.80
2022-12-29T00:39:08.238Z,9.80
2022-12-29T00:42:12.084Z,9.80
2022-12-29T00:44:58.721Z,9.80
2022-12-29T00:47:45.085Z,9.80
2022-12-29T00:50:30.339Z,9.80
2022-12-29T00:53:18.275Z,9.80
2022-12-29T00:56:04.713Z,9.80
2022-12-29T00:58:51.379Z,9.80
2022-12-29T01:01:39.389Z,9.80
2022-12-29T01:04:27.585Z,9.70
2022-12-29T01:07:13.754Z,9.70
2022-12-29T01:10:13.128Z,9.60
2022-12-29T01:12:59.399Z,9.60
2022-12-29T01:15:51.828Z,9.60
2022-12-29T01:18:38.142Z,9.50
2022-12-29T01:21:24.673Z,9.50
2022-12-29T01:24:11.201Z,9.50
2022-12-29T01:26:59.110Z,9.40
2022-12-29T01:29:45.435Z,9.50
2022-12-29T01:32:31.590Z,9.50
2022-12-29T01:35:18.953Z,9.40
2022-12-29T01:38:05.479Z,9.40
2022-12-29T01:40:51.598Z,9.40
2022-12-29T01:43:44.873Z,9.50
2022-12-29T01:46:35.219Z,9.50
2022-12-29T01:49:25.959Z,9.60
2022-12-29T01:52:12.805Z,9.60
2022-12-29T01:55:00.061Z,9.70
2022-12-29T01:57:51.002Z,9.70
2022-12-29T02:00:39.649Z,9.80
2022-12-29T02:03:29.477Z,9.80
2022-12-29T02:06:21.949Z,9.90
2022-12-29T02:09:08.538Z,9.90
2022-12-29T02:11:55.853Z,9.90
2022-12-29T02:14:42.756Z,10.00
2022-12-29T02:17:43.627Z,10.00
2022-12-29T02:20:50.352Z,10.00
2022-12-29T02:24:00.882Z,10.10
2022-12-29T02:27:01.883Z,10.10
2022-12-29T02:30:09.175Z,10.20
2022-12-29T02:33:02.197Z,10.20
2022-12-29T02:35:56.366Z,10.20
2022-12-29T02:38:54.647Z,10.20
2022-12-29T02:41:51.643Z,10.20
2022-12-29T02:44:52.550Z,10.30
2022-12-29T02:47:43.527Z,10.30
2022-12-29T02:50:35.556Z,10.30
2022-12-29T02:53:43.327Z,10.20
2022-12-29T02:56:28.702Z,10.20
2022-12-29T02:59:15.250Z,10.20
2022-12-29T03:02:21.988Z,10.20
2022-12-29T03:05:23.277Z,10.30
2022-12-29T03:08:18.957Z,10.30
2022-12-29T03:11:28.005Z,10.30
2022-12-29T03:14:42.759Z,10.30
2022-12-29T03:17:37.233Z,10.30
2022-12-29T03:20:27.548Z,10.30
2022-12-29T03:23:16.363Z,10.30
2022-12-29T03:26:07.329Z,10.30
2022-12-29T03:28:58.363Z,10.30
2022-12-29T03:31:45.973Z,10.40
2022-12-29T03:34:35.199Z,10.40
2022-12-29T03:37:26.920Z,10.50
2022-12-29T03:40:14.887Z,10.50
2022-12-29T03:43:01.928Z,10.50
2022-12-29T03:45:48.359Z,10.50
2022-12-29T03:48:34.789Z,10.50
2022-12-29T03:51:20.994Z,10.50
2022-12-29T03:54:07.387Z,10.50
2022-12-29T03:56:55.150Z,10.60
2022-12-29T03:59:41.384Z,10.60
2022-12-29T04:02:27.741Z,10.60
2022-12-29T04:05:14.533Z,10.70
2022-12-29T04:08:00.931Z,10.70
2022-12-29T04:10:47.243Z,10.70
2022-12-29T04:13:34.932Z,10.70
2022-12-29T04:16:21.314Z,10.70
2022-12-29T04:19:08.791Z,10.70
2022-12-29T04:21:55.378Z,10.70
2022-12-29T04:24:41.768Z,10.70
2022-12-29T04:27:28.042Z,10.80
2022-12-29T04:30:15.853Z,10.70
2022-12-29T04:33:04.856Z,10.80
2022-12-29T04:35:51.390Z,10.70
2022-12-29T04:38:38.038Z,10.80
2022-12-29T04:41:24.788Z,10.80
2022-12-29T04:44:10.956Z,10.70
2022-12-29T04:46:58.664Z,10.70
2022-12-29T04:49:45.085Z,10.60
2022-12-29T04:52:31.422Z,10.50
2022-12-29T04:55:17.960Z,10.40
2022-12-29T04:58:05.155Z,10.30
2022-12-29T05:00:52.466Z,10.40
2022-12-29T05:03:40.190Z,10.30
2022-12-29T05:06:26.900Z,10.30
2022-12-29T05:09:13.275Z,10.30
2022-12-29T05:11:59.679Z,10.20
2022-12-29T05:14:45.973Z,10.20
2022-12-29T05:17:32.275Z,10.10
2022-12-29T05:20:20.515Z,10.20
2022-12-29T05:23:07.153Z,10.20
2022-12-29T05:25:53.298Z,10.20
2022-12-29T05:28:39.709Z,10.30
2022-12-29T05:31:26.098Z,10.30
2022-12-29T05:34:13.564Z,10.30
2022-12-29T05:37:03.423Z,10.30
2022-12-29T05:39:49.911Z,10.30
2022-12-29T05:42:36.401Z,10.30
2022-12-29T05:45:22.669Z,10.30
2022-12-29T05:48:09.047Z,10.40
2022-12-29T05:50:55.510Z,10.40
2022-12-29T05:53:43.151Z,10.40
2022-12-29T05:56:29.615Z,10.40
2022-12-29T05:59:16.012Z,10.40
2022-12-29T06:02:02.383Z,10.30
2022-12-29T06:04:48.813Z,10.40
2022-12-29T06:07:35.132Z,10.40
2022-12-29T06:10:22.787Z,10.40
2022-12-29T06:13:09.177Z,10.40
2022-12-29T06:15:55.771Z,10.40
2022-12-29T06:18:42.202Z,10.40
2022-12-29T06:21:28.512Z,10.50
2022-12-29T06:24:15.007Z,10.60
2022-12-29T06:27:02.751Z,10.60
2022-12-29T06:29:49.164Z,10.70
2022-12-29T06:32:35.595Z,10.60
2022-12-29T06:35:23.207Z,10.70
2022-12-29T06:38:09.775Z,10.70
2022-12-29T06:40:56.208Z,10.70
2022-12-29T06:43:43.899Z,10.70
2022-12-29T06:46:30.450Z,10.70
2022-12-29T06:49:18.586Z,10.70
2022-12-29T06:52:12.276Z,10.80
2022-12-29T06:54:59.917Z,10.80
2022-12-29T06:57:46.978Z,10.80
2022-12-29T07:00:35.368Z,10.80
2022-12-29T07:03:21.835Z,10.80
2022-12-29T07:06:08.871Z,10.90
2022-12-29T07:08:56.106Z,10.90
2022-12-29T07:11:42.734Z,10.90
2022-12-29T07:14:29.111Z,10.90
2022-12-29T07:17:16.693Z,10.90
2022-12-29T07:20:03.184Z,10.90
2022-12-29T07:22:49.648Z,10.90
2022-12-29T07:25:36.926Z,10.90
2022-12-29T07:28:23.489Z,11.00
2022-12-29T07:31:16.249Z,11.00
2022-12-29T07:34:04.079Z,11.10
2022-12-29T07:36:50.340Z,11.00
2022-12-29T07:39:36.773Z,11.00
2022-12-29T07:42:23.158Z,11.00
2022-12-29T07:45:11.253Z,11.00
2022-12-29T07:47:57.936Z,11.00
2022-12-29T07:50:45.722Z,10.90
2022-12-29T07:53:32.190Z,10.90
2022-12-29T07:56:18.776Z,10.80
2022-12-29T07:59:05.192Z,10.80
2022-12-29T08:01:51.733Z,10.80
2022-12-29T08:04:38.411Z,10.80
2022-12-29T08:07:26.387Z,10.80
2022-12-29T08:10:13.498Z,10.90
2022-12-29T08:15:46.736Z,11.20
2022-12-29T08:18:33.240Z,11.40
2022-12-29T08:21:19.623Z,11.60
2022-12-29T08:24:08.225Z,11.80
2022-12-29T08:26:54.533Z,12.50
2022-12-29T08:29:40.726Z,12.90
2022-12-29T08:32:27.490Z,12.70
2022-12-29T08:35:14.180Z,12.40
2022-12-29T08:38:00.457Z,12.10
2022-12-29T08:40:48.330Z,11.90
2022-12-29T08:43:34.973Z,11.90
2022-12-29T08:46:21.428Z,11.90
2022-12-29T08:49:07.886Z,11.90
2022-12-29T08:51:54.327Z,11.90
2022-12-29T08:54:40.616Z,11.90
2022-12-29T08:57:28.628Z,11.80
2022-12-29T09:00:16.388Z,11.90
2022-12-29T09:03:03.168Z,12.10
2022-12-29T09:05:51.134Z,12.20
2022-12-29T09:08:38.608Z,12.30
2022-12-29T09:11:26.218Z,12.50
2022-12-29T09:14:14.623Z,12.60
2022-12-29T09:17:18.538Z,12.50
2022-12-29T09:20:06.023Z,12.60
2022-12-29T09:22:52.331Z,12.60
2022-12-29T09:25:38.592Z,12.80
2022-12-29T09:28:25.481Z,13.00
2022-12-29T09:31:13.191Z,13.10
2022-12-29T09:33:59.664Z,13.30
2022-12-29T09:36:45.959Z,13.30
2022-12-29T09:39:32.275Z,13.20
2022-12-29T09:42:25.686Z,13.30
2022-12-29T09:45:17.654Z,13.30
2022-12-29T09:48:10.912Z,13.60
2022-12-29T09:51:00.903Z,13.80
2022-12-29T09:53:54.237Z,13.90
2022-12-29T09:56:40.798Z,13.90
2022-12-29T09:59:32.954Z,13.70
2022-12-29T10:02:31.083Z,13.60
2022-12-29T10:05:32.709Z,13.40
2022-12-29T10:08:33.681Z,13.30
2022-12-29T10:11:33.159Z,13.40
2022-12-29T10:14:37.263Z,13.40
2022-12-29T10:17:34.026Z,13.40
2022-12-29T10:20:33.451Z,13.40
2022-12-29T10:23:29.625Z,13.60
2022-12-29T10:26:19.331Z,13.60
2022-12-29T10:29:07.712Z,13.50
2022-12-29T10:32:00.384Z,13.50
2022-12-29T10:34:50.958Z,13.50
2022-12-29T10:37:45.138Z,13.50
2022-12-29T10:40:38.459Z,13.40
2022-12-29T10:43:27.914Z,13.40
2022-12-29T10:46:18.094Z,13.30
2022-12-29T10:49:05.146Z,13.30
2022-12-29T10:51:53.943Z,13.30
2022-12-29T10:54:47.959Z,13.30
2022-12-29T10:57:38.119Z,13.30
2022-12-29T11:00:25.584Z,13.30
2022-12-29T11:03:46.818Z,13.20
2022-12-29T11:06:34.948Z,13.20
2022-12-29T11:09:41.544Z,13.20
2022-12-29T11:12:33.566Z,13.20
2022-12-29T11:15:20.416Z,13.20
2022-12-29T11:18:07.026Z,13.20
2022-12-29T11:20:55.889Z,13.30
2022-12-29T11:23:43.554Z,13.40
2022-12-29T11:26:34.381Z,13.50
2022-12-29T11:29:30.367Z,13.60
2022-12-29T11:32:26.255Z,13.60
2022-12-29T11:35:33.385Z,13.60
2022-12-29T11:38:24.009Z,13.60
2022-12-29T11:41:15.223Z,13.70
2022-12-29T11:44:04.464Z,13.60
2022-12-29T11:46:54.202Z,13.70
2022-12-29T11:49:41.176Z,13.70
2022-12-29T11:52:30.232Z,13.60
2022-12-29T11:55:22.895Z,13.60
2022-12-29T11:58:17.782Z,13.60
2022-12-29T12:01:08.535Z,13.70
2022-12-29T12:04:03.870Z,13.60
2022-12-29T12:07:01.065Z,13.70
2022-12-29T12:09:52.410Z,13.70
2022-12-29T12:12:45.338Z,13.70
2022-12-29T12:15:45.419Z,13.60
2022-12-29T12:18:39.765Z,13.60
2022-12-29T12:21:32.956Z,13.60
2022-12-29T12:24:39.731Z,13.50
2022-12-29T12:27:30.835Z,13.50
2022-12-29T12:30:20.616Z,13.50
2022-12-29T12:33:15.942Z,13.40
2022-12-29T12:36:24.252Z,13.30
2022-12-29T12:39:20.449Z,13.30
2022-12-29T12:42:23.234Z,13.30
2022-12-29T12:45:33.947Z,13.20
2022-12-29T12:48:48.928Z,13.20
2022-12-29T12:51:45.032Z,13.20
2022-12-29T12:54:48.943Z,13.20
2022-12-29T12:57:51.267Z,13.10
2022-12-29T13:00:47.720Z,13.10
2022-12-29T13:03:47.421Z,13.00
2022-12-29T13:06:47.251Z,13.10
2022-12-29T13:09:49.768Z,13.10
2022-12-29T13:12:48.348Z,13.20
2022-12-29T13:15:48.576Z,13.10
2022-12-29T13:18:46.997Z,13.20
2022-12-29T13:22:00.180Z,13.10
2022-12-29T13:25:05.477Z,13.10
2022-12-29T13:27:58.296Z,13.10
2022-12-29T13:30:50.776Z,13.10
2022-12-29T13:33:49.345Z,13.10
2022-12-29T13:36:44.037Z,13.20
2022-12-29T13:39:36.147Z,13.20
2022-12-29T13:42:25.367Z,13.10
2022-12-29T13:45:16.916Z,13.10
2022-12-29T13:48:07.477Z,13.00
2022-12-29T13:50:59.045Z,12.90
2022-12-29T13:54:03.005Z,12.90
2022-12-29T13:56:54.924Z,12.90
2022-12-29T13:59:52.246Z,12.90
2022-12-29T14:02:48.624Z,12.90
2022-12-29T14:05:35.297Z,12.80
2022-12-29T14:08:21.858Z,12.90
2022-12-29T14:11:11.388Z,12.80
2022-12-29T14:13:58.751Z,12.80
2022-12-29T14:16:46.833Z,12.80
2022-12-29T14:19:37.517Z,12.80
2022-12-29T14:22:32.761Z,12.80
2022-12-29T14:25:55.792Z,12.80
2022-12-29T14:28:44.695Z,12.80
2022-12-29T14:31:42.100Z,12.70
2022-12-29T14:34:41.381Z,12.70
2022-12-29T14:37:30.201Z,12.60
2022-12-29T14:40:19.503Z,12.60
2022-12-29T14:43:16.120Z,12.50
2022-12-29T14:46:04.179Z,12.40
2022-12-29T14:48:57.451Z,12.20
2022-12-29T14:51:46.004Z,12.20
2022-12-29T14:54:50.630Z,12.10
2022-12-29T14:57:41.318Z,12.00
2022-12-29T15:00:32.189Z,11.90
2022-12-29T15:03:22.485Z,12.00
2022-12-29T15:06:12.258Z,11.90
2022-12-29T15:09:06.055Z,11.80
2022-12-29T15:11:55.819Z,11.80
2022-12-29T15:14:51.991Z,11.80
2022-12-29T15:17:39.575Z,11.70
2022-12-29T15:20:29.043Z,11.60
2022-12-29T15:23:16.286Z,11.70
2022-12-29T15:26:05.942Z,11.70
2022-12-29T15:28:53.748Z,11.80
2022-12-29T15:31:49.661Z,11.80
2022-12-29T15:34:36.452Z,11.80
2022-12-29T15:37:25.642Z,11.80
2022-12-29T15:40:25.996Z,11.70
2022-12-29T15:43:38.522Z,11.70
2022-12-29T15:46:31.562Z,11.70
2022-12-29T15:49:18.634Z,11.60
2022-12-29T15:52:09.855Z,11.50
2022-12-29T15:54:56.608Z,11.40
2022-12-29T15:57:45.167Z,11.40
2022-12-29T16:00:35.281Z,11.30
2022-12-29T16:03:23.350Z,11.20
2022-12-29T16:06:12.273Z,11.10
2022-12-29T16:09:01.116Z,11.10
2022-12-29T16:11:52.797Z,11.20
2022-12-29T16:14:43.916Z,11.20
2022-12-29T16:17:33.922Z,11.20
2022-12-29T16:20:23.331Z,11.20
2022-12-29T16:23:20.438Z,11.20
2022-12-29T16:26:17.650Z,11.00
2022-12-29T16:29:08.317Z,11.00
2022-12-29T16:32:01.524Z,11.00
2022-12-29T16:34:49.623Z,10.80
2022-12-29T16:37:38.354Z,10.80
2022-12-29T16:40:31.255Z,10.80
2022-12-29T16:43:23.564Z,10.70
2022-12-29T16:46:30.703Z,10.70
2022-12-29T16:49:21.805Z,10.60
2022-12-29T16:52:21.278Z,10.60
2022-12-29T16:55:17.542Z,10.60
2022-12-29T16:58:04.266Z,10.60
2022-12-29T17:00:51.192Z,10.60
2022-12-29T17:03:45.876Z,10.50
2022-12-29T17:06:33.219Z,10.60
2022-12-29T17:09:23.248Z,10.50
2022-12-29T17:12:12.613Z,10.60
2022-12-29T17:15:01.451Z,10.40
2022-12-29T17:17:49.745Z,10.40
2022-12-29T17:20:36.292Z,10.40
2022-12-29T17:23:26.369Z,10.50
2022-12-29T17:26:14.794Z,10.40
2022-12-29T17:29:01.382Z,10.40
2022-12-29T17:31:47.970Z,10.30
2022-12-29T17:34:34.777Z,10.30
2022-12-29T17:37:35.738Z,10.20
2022-12-29T17:40:25.892Z,10.20
2022-12-29T17:43:15.881Z,10.20
2022-12-29T17:46:02.803Z,10.10
2022-12-29T17:48:53.525Z,10.10
2022-12-29T17:51:40.436Z,10.10
2022-12-29T17:54:27.866Z,10.00
2022-12-29T17:57:16.097Z,10.10
2022-12-29T18:00:05.203Z,10.00
2022-12-29T18:02:52.151Z,10.10
2022-12-29T18:05:39.282Z,10.00
2022-12-29T18:08:25.982Z,10.10
2022-12-29T18:11:24.357Z,10.00
2022-12-29T18:14:14.259Z,10.00
2022-12-29T18:17:02.020Z,10.10
2022-12-29T18:19:50.515Z,10.10
2022-12-29T18:22:36.976Z,10.00
2022-12-29T18:25:27.396Z,10.00
2022-12-29T18:28:13.944Z,9.90
2022-12-29T18:31:02.447Z,9.80
2022-12-29T18:33:51.301Z,9.80
2022-12-29T18:36:37.894Z,9.70
2022-12-29T18:39:29.624Z,9.70
2022-12-29T18:42:18.504Z,9.70
2022-12-29T18:45:16.433Z,9.70
2022-12-29T18:48:03.009Z,9.60
2022-12-29T18:50:51.806Z,9.60
2022-12-29T18:53:38.426Z,9.50
2022-12-29T18:56:25.249Z,9.50
2022-12-29T18:59:12.057Z,9.60
2022-12-29T19:01:58.745Z,9.60
2022-12-29T19:04:46.880Z,9.50
2022-12-29T19:07:38.217Z,9.50
2022-12-29T19:10:27.040Z,9.50
2022-12-29T19:13:18.314Z,9.50
2022-12-29T19:16:04.908Z,9.50
2022-12-29T19:19:08.407Z,9.50
2022-12-29T19:21:58.023Z,9.40
2022-12-29T19:24:45.977Z,9.40
2022-12-29T19:27:33.503Z,9.40
2022-12-29T19:30:20.487Z,9.40
2022-12-29T19:33:10.056Z,9.40
2022-12-29T19:36:01.171Z,9.30
2022-12-29T19:38:47.975Z,9.30
2022-12-29T19:41:35.914Z,9.20
2022-12-29T19:44:22.486Z,9.10
2022-12-29T19:47:09.059Z,9.10
2022-12-29T19:49:55.617Z,9.00
2022-12-29T19:52:42.889Z,9.10
2022-12-29T19:55:29.824Z,9.20
2022-12-29T19:58:17.386Z,9.30
2022-12-29T20:01:09.922Z,9.30
2022-12-29T20:03:56.727Z,9.30
2022-12-29T20:06:43.182Z,9.40
2022-12-29T20:09:29.584Z,9.30
2022-12-29T20:12:17.031Z,9.30
2022-12-29T20:15:06.328Z,9.40
2022-12-29T20:21:03.741Z,9.30
2022-12-29T20:23:51.241Z,9.20
2022-12-29T20:26:37.785Z,9.20
2022-12-29T20:29:24.590Z,9.20
2022-12-29T20:32:18.285Z,9.20
2022-12-29T20:35:05.336Z,9.20
2022-12-29T20:37:52.093Z,9.20
2022-12-29T20:40:45.944Z,9.30
2022-12-29T20:43:32.724Z,9.30
2022-12-29T20:46:21.815Z,9.30
2022-12-29T20:49:11.282Z,9.30
2022-12-29T20:52:07.027Z,9.20
2022-12-29T20:54:53.984Z,9.20
2022-12-29T20:58:21.466Z,9.20
2022-12-29T21:00:47.160Z,9.20
2022-12-29T21:03:34.034Z,9.20
2022-12-29T21:06:22.352Z,9.20
2022-12-29T21:09:09.010Z,9.20
2022-12-29T21:11:55.673Z,9.30
2022-12-29T21:14:45.540Z,9.30
2022-12-29T21:17:32.497Z,9.30
2022-12-29T21:20:29.685Z,9.30
2022-12-29T21:23:17.406Z,9.20
2022-12-29T21:26:07.423Z,9.30
2022-12-29T21:28:54.442Z,9.40
2022-12-29T21:31:41.002Z,9.40
2022-12-29T21:34:27.372Z,9.40
2022-12-29T21:37:17.237Z,9.40
2022-12-29T21:40:09.115Z,9.40
2022-12-29T21:42:55.670Z,9.40
2022-12-29T21:45:42.126Z,9.40
2022-12-29T21:48:30.173Z,9.40
2022-12-29T21:51:33.925Z,9.30
2022-12-29T21:54:40.942Z,9.30
2022-12-29T21:57:46.497Z,9.30
2022-12-29T22:00:50.546Z,9.30
2022-12-29T22:03:57.249Z,9.40
2022-12-29T22:07:01.151Z,9.30
2022-12-29T22:10:05.758Z,9.30
2022-12-29T22:12:59.849Z,9.10
2022-12-29T22:15:46.428Z,9.10
2022-12-29T22:18:32.752Z,9.00
2022-12-29T22:21:19.464Z,9.00
2022-12-29T22:24:06.757Z,8.90
2022-12-29T22:26:53.183Z,9.00
2022-12-29T22:29:41.398Z,8.90
2022-12-29T22:32:28.181Z,8.90
2022-12-29T22:35:15.018Z,9.00
2022-12-29T22:38:01.453Z,9.00
2022-12-29T22:40:48.043Z,9.10
2022-12-29T22:43:34.643Z,9.00
2022-12-29T22:46:22.417Z,8.90
2022-12-29T22:49:09.178Z,8.90
2022-12-29T22:51:55.524Z,8.90
2022-12-29T22:54:41.952Z,8.90
2022-12-29T22:57:30.378Z,8.90
2022-12-29T23:00:17.598Z,9.00
2022-12-29T23:03:05.531Z,8.90
2022-12-29T23:05:57.917Z,8.90
2022-12-29T23:08:44.886Z,8.90
2022-12-29T23:11:32.688Z,8.90
2022-12-29T23:14:19.018Z,8.80
2022-12-29T23:17:05.399Z,8.90
2022-12-29T23:19:53.568Z,8.90
2022-12-29T23:22:39.939Z,8.90
2022-12-29T23:25:26.258Z,8.90
2022-12-29T23:28:12.692Z,8.90
2022-12-29T23:30:59.077Z,8.90
2022-12-29T23:33:45.621Z,8.90
2022-12-29T23:36:33.885Z,8.90
2022-12-29T23:39:23.348Z,8.80
2022-12-29T23:42:11.207Z,8.80
2022-12-29T23:44:57.855Z,8.80
2022-12-29T23:47:44.129Z,8.80
2022-12-29T23:50:30.351Z,8.80
2022-12-29T23:53:18.067Z,8.80
2022-12-29T23:56:04.998Z,8.70
2022-12-29T23:58:54.720Z,8.80
